createdAt,value
2022-09-12T00:05:06.187Z,2.35
2022-09-12T00:10:28.008Z,2.50
2022-09-12T00:15:49.788Z,2.38
2022-09-12T00:21:11.599Z,2.55
2022-09-12T00:26:34.073Z,2.88
2022-09-12T00:31:55.858Z,2.33
2022-09-12T00:37:17.685Z,2.28
2022-09-12T00:42:39.481Z,2.92
2022-09-12T00:48:03.271Z,3.08
2022-09-12T00:53:25.947Z,3.05
2022-09-12T00:59:02.352Z,2.30
2022-09-12T01:04:27.799Z,2.30
2022-09-12T01:09:49.858Z,2.42
2022-09-12T01:15:12.644Z,2.38
2022-09-12T01:21:08.543Z,2.63
2022-09-12T01:26:55.113Z,2.47
2022-09-12T01:38:04.730Z,2.30
2022-09-12T01:43:38.978Z,2.72
2022-09-12T01:49:15.830Z,2.80
2022-09-12T01:54:43.270Z,2.45
2022-09-12T02:00:10.208Z,2.55
2022-09-12T02:05:40.407Z,2.65
2022-09-12T02:11:08.026Z,2.72
2022-09-12T02:16:56.741Z,3.00
2022-09-12T02:22:22.516Z,2.47
2022-09-12T02:27:50.003Z,2.45
2022-09-12T02:33:26.515Z,2.88
2022-09-12T02:38:48.825Z,2.72
2022-09-12T02:44:10.660Z,2.70
2022-09-12T02:49:33.084Z,2.50
2022-09-12T02:54:55.373Z,2.63
2022-09-12T03:00:17.350Z,2.47
2022-09-12T03:05:49.955Z,2.75
2022-09-12T03:11:47.307Z,2.72
2022-09-12T03:17:35.756Z,2.60
2022-09-12T03:23:07.454Z,2.20
2022-09-12T03:28:31.084Z,2.58
2022-09-12T03:33:52.858Z,1.90
2022-09-12T03:39:15.018Z,2.40
2022-09-12T03:44:36.837Z,2.75
2022-09-12T03:49:58.606Z,2.80
2022-09-12T03:55:20.409Z,3.25
2022-09-12T04:00:42.242Z,3.17
2022-09-12T04:06:04.326Z,3.58
2022-09-12T04:11:26.149Z,3.55
2022-09-12T04:16:47.994Z,4.07
2022-09-12T04:22:09.786Z,3.88
2022-09-12T04:27:31.576Z,4.68
2022-09-12T04:32:53.346Z,4.90
2022-09-12T04:38:15.238Z,4.50
2022-09-12T04:43:37.016Z,4.90
2022-09-12T04:48:58.839Z,4.13
2022-09-12T04:54:21.114Z,5.70
2022-09-12T04:59:42.872Z,4.80
2022-09-12T05:05:05.234Z,5.35
2022-09-12T05:10:26.999Z,6.05
2022-09-12T05:15:56.105Z,5.20
2022-09-12T05:21:20.433Z,5.38
2022-09-12T05:26:42.263Z,5.80
2022-09-12T05:32:04.181Z,5.50
2022-09-12T05:37:25.954Z,5.72
2022-09-12T05:42:47.733Z,5.68
2022-09-12T05:48:09.662Z,5.28
2022-09-12T05:53:31.482Z,5.35
2022-09-12T05:58:56.275Z,4.45
2022-09-12T06:04:18.108Z,4.70
2022-09-12T06:09:39.962Z,4.68
2022-09-12T06:15:01.730Z,4.40
2022-09-12T06:20:23.578Z,4.65
2022-09-12T06:25:49.122Z,4.47
2022-09-12T06:31:13.779Z,4.30
2022-09-12T06:36:41.918Z,4.22
2022-09-12T06:42:03.790Z,3.83
2022-09-12T06:47:25.673Z,3.72
2022-09-12T06:52:49.553Z,4.10
2022-09-12T06:58:11.338Z,3.72
2022-09-12T07:03:34.020Z,3.95
2022-09-12T07:08:58.051Z,4.15
2022-09-12T07:14:19.836Z,3.47
2022-09-12T07:19:41.605Z,3.83
2022-09-12T07:25:03.576Z,3.33
2022-09-12T07:30:25.451Z,3.90
2022-09-12T07:35:47.296Z,4.47
2022-09-12T07:41:24.350Z,4.10
2022-09-12T07:46:46.132Z,4.00
2022-09-12T07:52:09.188Z,3.88
2022-09-12T07:57:31.036Z,3.45
2022-09-12T08:02:53.488Z,3.17
2022-09-12T08:08:15.287Z,3.88
2022-09-12T08:13:39.076Z,3.47
2022-09-12T08:19:02.114Z,4.18
2022-09-12T08:24:23.912Z,3.58
2022-09-12T08:29:45.678Z,2.97
2022-09-12T08:35:07.761Z,3.58
2022-09-12T08:40:30.115Z,3.47
2022-09-12T08:46:02.309Z,3.33
2022-09-12T08:51:24.942Z,3.05
2022-09-12T08:56:48.151Z,3.50
2022-09-12T09:02:31.721Z,3.15
2022-09-12T09:08:14.978Z,3.58
2022-09-12T09:14:01.888Z,2.70
2022-09-12T09:19:34.520Z,3.08
2022-09-12T09:25:02.317Z,2.88
2022-09-12T09:30:24.119Z,2.92
2022-09-12T09:35:48.779Z,2.95
2022-09-12T09:41:25.028Z,2.80
2022-09-12T09:46:50.272Z,2.33
2022-09-12T09:52:16.218Z,3.03
2022-09-12T09:57:40.013Z,2.93
2022-09-12T10:03:16.994Z,2.80
2022-09-12T10:08:38.857Z,2.67
2022-09-12T10:14:00.725Z,2.67
2022-09-12T10:19:33.028Z,3.28
2022-09-12T10:24:58.141Z,3.33
2022-09-12T10:30:21.540Z,2.83
2022-09-12T10:35:47.752Z,2.35
2022-09-12T10:41:11.552Z,2.78
2022-09-12T10:46:33.357Z,2.53
2022-09-12T10:51:57.869Z,2.90
2022-09-12T10:57:31.540Z,2.80
2022-09-12T11:03:09.482Z,2.78
2022-09-12T11:08:40.289Z,3.10
2022-09-12T11:14:20.815Z,2.67
2022-09-12T11:20:20.172Z,2.92
2022-09-12T11:26:03.329Z,2.65
2022-09-12T11:32:02.735Z,3.33
2022-09-12T11:37:51.636Z,3.20
2022-09-12T11:43:19.498Z,2.80
2022-09-12T11:48:51.593Z,3.28
2022-09-12T11:54:41.434Z,3.33
2022-09-12T12:00:06.730Z,2.40
2022-09-12T12:05:57.656Z,2.72
2022-09-12T12:11:28.498Z,2.67
2022-09-12T12:16:50.712Z,2.10
2022-09-12T12:22:21.868Z,3.10
2022-09-12T12:28:00.566Z,2.55
2022-09-12T12:33:22.276Z,2.63
2022-09-12T12:38:44.157Z,2.58
2022-09-12T12:44:43.332Z,2.60
2022-09-12T12:50:10.894Z,2.75
2022-09-12T12:55:38.074Z,2.10
2022-09-12T13:01:12.135Z,2.10
2022-09-12T13:06:36.920Z,1.95
2022-09-12T13:12:05.434Z,2.40
2022-09-12T13:17:41.508Z,2.50
2022-09-12T13:23:03.690Z,2.33
2022-09-12T13:28:29.807Z,2.50
2022-09-12T13:33:55.554Z,3.50
2022-09-12T13:39:26.034Z,2.20
2022-09-12T13:44:51.768Z,2.50
2022-09-12T13:50:18.648Z,2.43
2022-09-12T13:55:45.034Z,2.80
2022-09-12T14:01:09.812Z,2.72
2022-09-12T14:06:45.750Z,3.75
2022-09-12T14:12:15.516Z,2.53
2022-09-12T14:17:38.702Z,2.50
2022-09-12T14:23:18.003Z,2.83
2022-09-12T14:28:44.431Z,2.80
2022-09-12T14:34:17.765Z,3.05
2022-09-12T14:39:42.946Z,3.10
2022-09-12T14:45:16.406Z,3.50
2022-09-12T14:50:38.236Z,2.97
2022-09-12T14:56:11.925Z,3.40
2022-09-12T15:01:33.758Z,3.15
2022-09-12T15:06:55.611Z,3.25
2022-09-12T15:12:17.424Z,3.05
2022-09-12T15:17:39.247Z,3.60
2022-09-12T15:23:01.102Z,3.65
2022-09-12T15:28:23.985Z,3.75
2022-09-12T15:33:45.907Z,3.88
2022-09-12T15:39:09.236Z,4.10
2022-09-12T15:44:31.100Z,4.53
2022-09-12T15:49:52.922Z,3.67
2022-09-12T15:55:20.989Z,3.65
2022-09-12T16:00:42.821Z,4.03
2022-09-12T16:06:05.408Z,4.38
2022-09-12T16:11:27.429Z,3.58
2022-09-12T16:16:54.099Z,3.95
2022-09-12T16:27:37.752Z,3.90
2022-09-12T16:32:59.826Z,3.78
2022-09-12T16:38:22.231Z,4.20
2022-09-12T16:43:44.680Z,3.95
2022-09-12T16:49:06.617Z,4.55
2022-09-12T16:54:28.595Z,5.28
2022-09-12T16:59:50.371Z,4.07
2022-09-12T17:05:12.180Z,4.07
2022-09-12T17:10:34.004Z,4.70
2022-09-12T17:15:56.291Z,4.80
2022-09-12T17:21:18.261Z,4.88
2022-09-12T17:26:40.473Z,4.35
2022-09-12T17:32:02.564Z,4.03
2022-09-12T17:37:24.734Z,4.57
2022-09-12T17:42:46.883Z,5.38
2022-09-12T17:48:11.306Z,5.30
2022-09-12T17:53:33.187Z,4.85
2022-09-12T17:58:57.255Z,5.68
2022-09-12T18:04:19.569Z,4.63
2022-09-12T18:09:42.224Z,5.03
2022-09-12T18:15:04.313Z,4.57
2022-09-12T18:20:26.435Z,4.30
2022-09-12T18:25:48.595Z,5.15
2022-09-12T18:31:14.456Z,4.80
2022-09-12T18:36:36.360Z,4.60
2022-09-12T18:41:58.264Z,5.50
2022-09-12T18:47:20.353Z,5.50
2022-09-12T18:52:42.180Z,5.32
2022-09-12T18:58:04.021Z,5.40
2022-09-12T19:03:26.511Z,5.03
2022-09-12T19:08:49.959Z,3.92
2022-09-12T19:14:12.091Z,7.55
2022-09-12T19:19:36.603Z,4.78
2022-09-12T19:30:22.459Z,4.68
2022-09-12T19:35:44.325Z,4.60
2022-09-12T19:41:12.269Z,4.72
2022-09-12T19:46:36.694Z,4.93
2022-09-12T19:51:58.597Z,5.18
2022-09-12T19:57:20.371Z,5.20
2022-09-12T20:02:42.570Z,5.68
2022-09-12T20:08:04.513Z,6.43
2022-09-12T20:13:26.383Z,6.38
2022-09-12T20:18:52.123Z,6.10
2022-09-12T20:24:14.485Z,6.20
2022-09-12T20:29:36.371Z,6.82
2022-09-12T20:34:58.127Z,6.95
2022-09-12T20:40:19.921Z,7.38
2022-09-12T20:45:41.767Z,6.57
2022-09-12T20:51:03.906Z,6.85
2022-09-12T20:56:26.520Z,11.43
2022-09-12T21:01:48.479Z,8.27
2022-09-12T21:07:10.369Z,7.97
2022-09-12T21:12:32.150Z,9.27
2022-09-12T21:17:53.961Z,8.73
2022-09-12T21:23:15.735Z,7.75
2022-09-12T21:28:37.543Z,7.43
2022-09-12T21:33:59.271Z,8.38
2022-09-12T21:39:21.057Z,8.38
2022-09-12T21:44:42.835Z,8.82
2022-09-12T21:50:09.236Z,7.85
2022-09-12T21:55:31.053Z,9.35
2022-09-12T22:00:52.858Z,8.45
2022-09-12T22:06:14.900Z,9.00
2022-09-12T22:11:36.663Z,9.43
2022-09-12T22:16:58.504Z,10.98
2022-09-12T22:22:20.293Z,10.40
2022-09-12T22:27:42.082Z,10.52
2022-09-12T22:33:03.952Z,9.50
2022-09-12T22:38:25.720Z,10.10
2022-09-12T22:43:47.493Z,10.13
2022-09-12T22:49:09.631Z,8.77
2022-09-12T22:54:31.431Z,9.95
2022-09-12T22:59:53.223Z,9.95
2022-09-12T23:05:15.128Z,9.65
2022-09-12T23:10:37.950Z,9.90
2022-09-12T23:16:01.473Z,10.40
2022-09-12T23:21:23.642Z,10.43
2022-09-12T23:26:45.423Z,10.95
2022-09-12T23:32:07.220Z,9.50
2022-09-12T23:37:29.603Z,9.27
2022-09-12T23:42:51.384Z,9.32
2022-09-12T23:48:13.395Z,9.52
2022-09-12T23:53:35.556Z,10.25
2022-09-12T23:58:57.339Z,9.25
